This is the latest recevied weather packets stored in our database for station/object N5DGC. If no packets are shown the sender has not sent any weather packets the latest 10 day(s).
| Time | Temp. | Humidity | Pressure | Rain* | Wind** | Luminosity | Snow |
|---|---|---|---|---|---|---|---|
| 1787880586 | 26.67° C | 42% | 1241.6 hPa | 0 mm | - | 8 W/m² | - |
| 1787880284 | 27.22° C | 39% | 1241.4 hPa | 0 mm | - | 14 W/m² | - |
| 1787879980 | 27.22° C | 35% | 1241.2 hPa | 0 mm | - | 24 W/m² | - |
| 1787879675 | 26.11° C | 39% | 1241.2 hPa | 0 mm | - | 30 W/m² | - |
| 1787879370 | 25° C | 45% | 1241.1 hPa | 0.51 mm | - | 23 W/m² | - |
| 1787879066 | 22.78° C | 48% | 1240.9 hPa | 2.29 mm | - | 18 W/m² | - |
| 1787878761 | 22.78° C | 69% | 1241.4 hPa | 1.78 mm | - | 15 W/m² | - |
| 1787878460 | 22.22° C | 71% | 1240.9 hPa | 0.51 mm | - | 15 W/m² | - |
| 1787878157 | 22.22° C | 60% | 1240.8 hPa | 5.33 mm | - | 15 W/m² | - |
| 1787877852 | 23.33° C | 62% | 1240.9 hPa | 16.26 mm | - | 15 W/m² | - |
| 1787877547 | 24.44° C | 58% | 1240.9 hPa | 27.69 mm | - | 18 W/m² | - |
| 1787877243 | 27.22° C | 54% | 1240.9 hPa | 15.49 mm | - | 18 W/m² | - |
| 1787876943 | 31.67° C | 38% | 1240.4 hPa | 0.51 mm | - | 19 W/m² | - |
| 1787876639 | 32.78° C | 24% | 1240 hPa | 0 mm | - | 21 W/m² | - |
| 1787876338 | 34.44° C | 21% | 1240.1 hPa | 0 mm | - | 27 W/m² | - |
| 1787876037 | 36.11° C | 17% | 1239.7 hPa | 0 mm | - | 32 W/m² | - |
| 1787875732 | 37.22° C | 17% | 1239.8 hPa | 0 mm | - | 51 W/m² | - |
| 1787875431 | 37.22° C | 17% | 1239.7 hPa | 0 mm | - | 196 W/m² | - |
| 1787875130 | 36.67° C | 16% | 1239.5 hPa | 0 mm | - | 241 W/m² | - |
| 1787874825 | 36.11° C | 17% | 1239.7 hPa | 0 mm | - | 275 W/m² | - |
| 1787874523 | 36.11° C | 17% | 1239.7 hPa | 0 mm | - | 123 W/m² | - |
| 1787874219 | 36.67° C | 17% | 1239.7 hPa | 0 mm | - | 154 W/m² | - |
| 1787873914 | 36.67° C | 17% | 1239.7 hPa | 0 mm | - | 315 W/m² | - |
| 1787873613 | 36.67° C | 17% | 1239.8 hPa | 0 mm | - | 321 W/m² | - |
| 1787873308 | 37.22° C | 17% | 1239.8 hPa | 0 mm | - | 130 W/m² | - |
* Rain latest hour (hover to see other rain measurements)
** Current wind speed in m/s (hover to see current wind gust speed)